Terminal Aerodrome Forecast
Issued by NWS

Home | Current Version | Previous Version | Text Only | Print | Product List | Glossary On
Versions: 1 2 3 4 5 6 7 8 9 10 11 12 13 14 15 16 17 18 19 20 21 22 23 24 25 26 27 28 29 30 31
000
FTUS43 KDLH 171500 AAD
TAFHIB
TAF AMD
KHIB 171517Z 1715/1812 00000KT P6SM SCT100
     FM171700 36005KT P6SM SCT015 BKN080
     FM172100 04007KT P6SM SCT040
     FM180300 10005KT P6SM SCT015=

USA.gov is the U.S. government's official web portal to all federal, state and local government web resources and services.